Time;durP1;ratioP1;P1;durP2;ratioP2;P2;SDS_P1;SDS_P2;PMS_P1;PMS_P2;Temp;Humidity;BMP_temperature;BMP_pressure;BME280_temperature;BME280_humidity;BME280_pressure;Samples;Min_cycle;Max_cycle;Signal;HPM_P1;HPM_P2
2022/08/30 00:01:41;;;;;;;11.63;7.35;;;21.10;61.70;;;;;;5033566;28;20033;-70
2022/08/30 00:04:07;;;;;;;13.13;10.45;;;21.00;62.30;;;;;;5030082;28;20047;-69
2022/08/30 00:06:33;;;;;;;9.88;7.72;;;21.10;62.30;;;;;;5033300;28;20104;-68
2022/08/30 00:08:59;;;;;;;7.50;6.60;;;21.00;62.50;;;;;;5033223;28;20021;-70
2022/08/30 00:11:26;;;;;;;11.85;6.07;;;21.00;62.70;;;;;;5034302;28;20022;-68
2022/08/30 00:13:54;;;;;;;10.05;6.25;;;21.00;62.50;;;;;;5033186;28;20030;-66
2022/08/30 00:16:21;;;;;;;12.70;6.05;;;21.00;62.60;;;;;;5033899;28;20040;-68
2022/08/30 00:18:48;;;;;;;6.82;5.65;;;21.00;62.70;;;;;;5046031;28;20494;-66
2022/08/30 00:21:14;;;;;;;15.75;6.45;;;21.00;62.70;;;;;;5053656;28;20028;-69
2022/08/30 00:23:40;;;;;;;11.32;6.90;;;21.00;63.00;;;;;;5053447;28;20049;-66
2022/08/30 00:26:07;;;;;;;10.15;6.80;;;21.00;63.40;;;;;;5053632;28;20024;-69
2022/08/30 00:28:33;;;;;;;7.18;6.43;;;21.00;63.40;;;;;;5053556;28;20406;-66
2022/08/30 00:31:00;;;;;;;12.23;6.88;;;21.00;63.20;;;;;;5053530;28;20071;-67
2022/08/30 00:33:28;;;;;;;9.40;6.05;;;21.00;63.50;;;;;;5033538;28;20025;-68
2022/08/30 00:35:54;;;;;;;9.40;6.28;;;21.00;63.40;;;;;;5053078;28;20079;-68
2022/08/30 00:38:21;;;;;;;9.68;5.40;;;21.00;63.40;;;;;;5035511;28;20025;-68
2022/08/30 00:40:47;;;;;;;9.60;6.50;;;21.00;63.40;;;;;;5053282;28;20086;-67
2022/08/30 00:43:18;;;;;;;8.13;6.13;;;20.90;63.30;;;;;;5053319;28;20020;-67
2022/08/30 00:45:44;;;;;;;8.65;6.45;;;20.90;63.50;;;;;;5036054;28;20017;-69
2022/08/30 00:48:10;;;;;;;11.85;6.80;;;20.90;63.50;;;;;;5040117;28;20028;-69
2022/08/30 00:50:43;;;;;;;10.57;6.07;;;20.90;63.50;;;;;;5053156;28;20024;-68
2022/08/30 00:53:13;;;;;;;14.38;6.90;;;20.80;63.60;;;;;;5053086;28;20082;-69
2022/08/30 00:55:42;;;;;;;8.90;6.40;;;20.80;63.70;;;;;;5053125;28;20372;-69
2022/08/30 00:58:15;;;;;;;16.83;7.00;;;20.80;63.80;;;;;;5053119;28;20074;-69
2022/08/30 01:00:41;;;;;;;11.13;6.20;;;20.80;64.20;;;;;;5053029;28;20021;-67
2022/08/30 01:03:08;;;;;;;8.50;6.75;;;20.80;64.00;;;;;;5034927;28;20029;-69
2022/08/30 01:05:37;;;;;;;12.57;7.07;;;20.80;64.00;;;;;;5052851;28;20024;-67
2022/08/30 01:08:04;;;;;;;14.98;6.80;;;20.70;64.20;;;;;;5053069;28;20021;-69
2022/08/30 01:10:32;;;;;;;10.10;6.43;;;20.70;64.20;;;;;;5052750;28;20060;-69
2022/08/30 01:12:58;;;;;;;11.50;6.97;;;20.70;64.40;;;;;;5052725;28;20355;-70
2022/08/30 01:15:24;;;;;;;11.10;6.80;;;20.70;64.30;;;;;;5052722;28;20025;-66
2022/08/30 01:17:50;;;;;;;8.40;7.18;;;20.70;64.30;;;;;;5048346;28;20525;-68
2022/08/30 01:20:26;;;;;;;14.23;7.53;;;20.70;64.30;;;;;;5032644;28;20061;-68
2022/08/30 01:22:51;;;;;;;12.43;7.03;;;20.60;64.60;;;;;;5032616;28;20379;-68
2022/08/30 01:25:28;;;;;;;8.25;7.32;;;20.60;64.50;;;;;;5034242;28;20032;-68
2022/08/30 01:28:02;;;;;;;9.77;6.68;;;20.60;64.60;;;;;;5036923;28;20017;-66
2022/08/30 01:30:29;;;;;;;10.60;6.50;;;20.50;64.60;;;;;;5036883;28;20037;-67
2022/08/30 01:33:00;;;;;;;8.70;6.45;;;20.50;64.70;;;;;;5036809;28;20091;-67
2022/08/30 01:35:27;;;;;;;11.00;7.32;;;20.50;64.90;;;;;;5036851;28;20052;-67
2022/08/30 01:37:53;;;;;;;11.10;7.10;;;20.50;64.90;;;;;;5036722;28;20026;-66
2022/08/30 01:40:19;;;;;;;11.93;6.72;;;20.40;65.60;;;;;;5036683;28;20382;-66
2022/08/30 01:42:45;;;;;;;12.80;7.00;;;20.40;65.00;;;;;;5036552;28;20018;-68
2022/08/30 01:45:12;;;;;;;10.65;6.15;;;20.40;65.00;;;;;;5036597;28;20485;-66
2022/08/30 01:47:39;;;;;;;8.25;5.93;;;20.30;64.90;;;;;;5038195;28;20018;-67
2022/08/30 01:50:06;;;;;;;11.27;7.40;;;20.30;65.10;;;;;;5050059;28;20033;-69
2022/08/30 01:52:32;;;;;;;11.98;6.72;;;20.30;65.20;;;;;;5036444;28;20037;-71
2022/08/30 01:54:58;;;;;;;7.82;6.00;;;20.30;65.50;;;;;;5036407;28;20021;-68
2022/08/30 01:57:25;;;;;;;11.13;6.72;;;20.30;65.60;;;;;;5036378;28;20159;-69
2022/08/30 01:59:52;;;;;;;8.63;6.97;;;20.20;65.50;;;;;;5036219;28;20479;-68
2022/08/30 02:02:24;;;;;;;8.00;6.10;;;20.20;65.60;;;;;;5036345;28;20017;-70
2022/08/30 02:04:52;;;;;;;13.48;6.93;;;20.20;65.70;;;;;;5036152;28;20148;-69
2022/08/30 02:07:18;;;;;;;10.80;6.25;;;20.20;65.80;;;;;;5018408;28;20025;-66
2022/08/30 02:09:44;;;;;;;7.05;6.03;;;20.20;65.90;;;;;;5036198;28;20017;-69
2022/08/30 02:12:10;;;;;;;12.93;6.32;;;20.20;66.00;;;;;;5036140;28;20040;-68
2022/08/30 02:14:37;;;;;;;15.70;6.57;;;20.20;66.00;;;;;;5036086;28;20029;-67
2022/08/30 02:17:04;;;;;;;8.52;6.40;;;20.20;66.20;;;;;;5036031;28;20045;-69
2022/08/30 02:19:30;;;;;;;12.80;6.45;;;20.10;66.30;;;;;;5036695;28;20099;-67
2022/08/30 02:21:56;;;;;;;9.35;6.03;;;20.10;66.90;;;;;;5055610;28;20490;-68
2022/08/30 02:24:22;;;;;;;10.50;6.10;;;20.10;66.10;;;;;;5055890;28;20048;-69
2022/08/30 02:26:47;;;;;;;16.02;6.95;;;20.10;66.20;;;;;;5055726;28;20082;-68
2022/08/30 02:29:14;;;;;;;8.90;5.82;;;20.10;66.20;;;;;;5055750;28;20072;-68
2022/08/30 02:31:39;;;;;;;9.48;6.55;;;20.10;66.30;;;;;;5055598;28;20033;-66
2022/08/30 02:34:05;;;;;;;8.18;6.10;;;20.10;66.50;;;;;;5055582;28;20036;-69
2022/08/30 02:36:31;;;;;;;12.15;6.97;;;20.00;66.60;;;;;;5054872;28;20048;-66
2022/08/30 02:38:57;;;;;;;9.52;5.97;;;20.00;66.60;;;;;;5055518;28;20100;-68
2022/08/30 02:41:23;;;;;;;8.32;6.45;;;20.00;66.50;;;;;;5050901;28;20105;-67
2022/08/30 02:43:50;;;;;;;9.25;6.88;;;20.00;66.50;;;;;;5035524;28;20096;-70
2022/08/30 02:46:16;;;;;;;13.70;6.60;;;20.00;66.70;;;;;;5035525;28;20025;-67
2022/08/30 02:48:42;;;;;;;7.70;6.32;;;20.00;66.70;;;;;;5034127;28;20021;-69
2022/08/30 02:51:11;;;;;;;9.60;6.15;;;20.00;66.60;;;;;;5048898;28;20040;-68
2022/08/30 02:53:37;;;;;;;13.40;6.13;;;20.00;66.60;;;;;;5055119;28;20032;-66
2022/08/30 02:56:04;;;;;;;8.50;5.88;;;20.00;66.60;;;;;;5055278;28;20471;-69
2022/08/30 02:58:30;;;;;;;8.30;5.85;;;20.00;66.70;;;;;;5055157;28;20122;-68
2022/08/30 03:00:55;;;;;;;9.48;6.95;;;20.00;66.90;;;;;;5055047;28;20087;-68
2022/08/30 03:03:21;;;;;;;10.85;6.43;;;20.00;67.00;;;;;;5055110;28;20021;-67
2022/08/30 03:05:47;;;;;;;9.98;6.10;;;20.00;66.80;;;;;;5055062;28;20155;-70
2022/08/30 03:08:13;;;;;;;14.77;7.10;;;19.90;66.80;;;;;;5055029;28;20096;-67
2022/08/30 03:10:39;;;;;;;8.18;6.07;;;19.90;67.00;;;;;;5054895;28;20032;-66
2022/08/30 03:13:08;;;;;;;12.70;6.32;;;19.90;66.90;;;;;;5054935;28;20092;-69
2022/08/30 03:15:36;;;;;;;9.90;6.80;;;19.90;66.90;;;;;;5054886;28;20079;-68
2022/08/30 03:18:02;;;;;;;9.50;5.82;;;19.90;66.80;;;;;;5036873;28;20029;-67
2022/08/30 03:20:28;;;;;;;8.40;6.88;;;19.90;66.70;;;;;;5046093;28;20033;-67
2022/08/30 03:22:54;;;;;;;8.68;6.88;;;19.90;66.70;;;;;;5034393;28;20494;-70
2022/08/30 03:25:21;;;;;;;6.80;6.03;;;19.90;66.90;;;;;;5034837;28;20021;-68
2022/08/30 03:27:47;;;;;;;9.30;5.35;;;19.90;67.00;;;;;;5034687;28;20104;-68
2022/08/30 03:30:13;;;;;;;10.68;7.20;;;19.90;66.90;;;;;;5034643;28;20479;-67
2022/08/30 03:32:40;;;;;;;10.02;7.20;;;19.90;67.00;;;;;;5034530;28;20033;-69
2022/08/30 03:35:06;;;;;;;26.15;7.53;;;19.90;67.90;;;;;;5034495;28;20475;-69
2022/08/30 03:37:33;;;;;;;7.32;6.38;;;19.90;67.20;;;;;;5032871;28;20363;-69
2022/08/30 03:39:58;;;;;;;9.15;6.32;;;19.90;67.10;;;;;;5034323;28;20028;-68
2022/08/30 03:42:24;;;;;;;10.95;7.03;;;19.90;67.10;;;;;;5034662;28;20479;-69
2022/08/30 03:44:50;;;;;;;10.13;6.35;;;19.90;67.20;;;;;;5034409;28;20037;-70
2022/08/30 03:47:16;;;;;;;9.70;7.15;;;19.90;67.20;;;;;;5033090;28;20021;-70
2022/08/30 03:49:42;;;;;;;8.88;6.82;;;19.90;67.30;;;;;;5034804;28;20021;-68
2022/08/30 03:52:08;;;;;;;13.35;7.97;;;19.90;67.20;;;;;;5053847;28;20414;-66
2022/08/30 03:54:34;;;;;;;12.15;6.88;;;19.80;67.10;;;;;;5054038;28;20024;-69
2022/08/30 03:56:59;;;;;;;9.95;6.93;;;19.90;67.10;;;;;;5054043;28;20044;-66
2022/08/30 03:59:25;;;;;;;14.02;7.70;;;19.80;67.20;;;;;;5054036;28;20025;-67
2022/08/30 04:01:51;;;;;;;12.10;8.07;;;19.80;67.30;;;;;;5053916;28;20406;-67
2022/08/30 04:04:17;;;;;;;11.43;6.53;;;19.80;67.20;;;;;;5053837;28;20036;-69
2022/08/30 04:06:43;;;;;;;12.65;6.68;;;19.80;67.20;;;;;;5053760;28;20025;-69
2022/08/30 04:09:09;;;;;;;10.80;7.20;;;19.80;67.30;;;;;;5053784;28;20025;-68
2022/08/30 04:11:35;;;;;;;11.90;7.10;;;19.80;67.30;;;;;;5053661;28;20029;-67
2022/08/30 04:14:00;;;;;;;11.98;7.35;;;19.80;67.30;;;;;;5053645;28;20047;-68
2022/08/30 04:16:27;;;;;;;13.18;7.75;;;19.70;67.40;;;;;;5053609;28;20029;-68
2022/08/30 04:18:52;;;;;;;10.27;6.90;;;19.80;67.60;;;;;;5053513;28;20017;-66
2022/08/30 04:21:18;;;;;;;11.60;6.95;;;19.80;67.60;;;;;;5038567;28;20033;-67
2022/08/30 04:23:46;;;;;;;9.18;7.15;;;19.70;67.60;;;;;;5033570;28;20021;-67
2022/08/30 04:26:12;;;;;;;10.35;7.40;;;19.70;67.50;;;;;;5033533;28;20018;-68
2022/08/30 04:28:38;;;;;;;10.68;7.65;;;19.70;67.60;;;;;;5033440;28;20028;-68
2022/08/30 04:31:09;;;;;;;8.43;7.35;;;19.70;67.80;;;;;;5033373;28;20390;-67
2022/08/30 04:33:35;;;;;;;10.98;7.43;;;19.70;67.90;;;;;;5032162;28;20029;-69
2022/08/30 04:36:04;;;;;;;10.60;7.53;;;19.70;67.80;;;;;;5033341;28;20025;-67
2022/08/30 04:38:30;;;;;;;11.15;7.47;;;19.70;67.80;;;;;;5033222;28;20029;-70
2022/08/30 04:40:56;;;;;;;9.02;6.93;;;19.70;67.90;;;;;;5033304;28;20025;-67
2022/08/30 04:43:24;;;;;;;9.68;7.85;;;19.70;67.90;;;;;;5033714;28;20379;-69
2022/08/30 04:45:51;;;;;;;12.13;8.00;;;19.70;68.00;;;;;;5032492;28;20112;-66
2022/08/30 04:48:17;;;;;;;9.88;7.40;;;19.80;68.20;;;;;;5032669;28;20021;-68
2022/08/30 04:50:43;;;;;;;7.70;6.78;;;19.80;68.20;;;;;;5042744;28;20043;-66
2022/08/30 04:53:09;;;;;;;14.27;7.50;;;19.80;68.20;;;;;;5053657;28;20467;-68
2022/08/30 04:55:35;;;;;;;9.63;6.95;;;19.80;68.30;;;;;;5053656;28;20028;-67
2022/08/30 04:58:01;;;;;;;11.27;7.97;;;19.80;68.30;;;;;;5053650;28;20032;-66
2022/08/30 05:00:27;;;;;;;13.85;7.88;;;19.80;68.40;;;;;;5052748;28;20033;-67
2022/08/30 05:02:53;;;;;;;12.57;7.50;;;19.90;68.50;;;;;;5052846;28;20032;-70
2022/08/30 05:08:03;;;;;;;;;;;19.90;68.30;;;;;;5053281;28;20112;-66
2022/08/30 05:10:29;;;;;;;14.02;7.35;;;20.00;68.00;;;;;;5052750;28;19987;-67
2022/08/30 05:12:55;;;;;;;8.02;6.57;;;20.10;68.20;;;;;;5034860;28;20394;-69
2022/08/30 05:15:21;;;;;;;9.02;7.53;;;20.10;68.20;;;;;;5052615;28;20075;-66
2022/08/30 05:17:47;;;;;;;11.80;8.30;;;20.10;68.40;;;;;;5052695;28;20032;-65
2022/08/30 05:20:13;;;;;;;9.82;7.18;;;20.10;68.50;;;;;;5047620;28;20033;-70
2022/08/30 05:22:42;;;;;;;14.65;8.75;;;20.20;68.50;;;;;;5032161;28;20495;-69
2022/08/30 05:25:09;;;;;;;17.45;7.78;;;20.20;68.40;;;;;;5032930;28;20073;-67
2022/08/30 05:27:34;;;;;;;9.80;7.30;;;20.30;68.40;;;;;;5032673;28;20111;-68
2022/08/30 05:30:00;;;;;;;9.07;7.10;;;20.40;68.30;;;;;;5032616;28;20041;-66
2022/08/30 05:32:26;;;;;;;12.35;7.40;;;20.40;68.10;;;;;;5030913;28;20068;-67
2022/08/30 05:34:52;;;;;;;13.48;7.20;;;20.50;68.00;;;;;;5032497;28;20040;-68
2022/08/30 05:37:17;;;;;;;13.77;6.78;;;20.60;68.00;;;;;;5032690;28;20490;-66
2022/08/30 05:39:43;;;;;;;11.23;6.43;;;20.60;67.80;;;;;;5032722;28;20026;-67
2022/08/30 05:42:09;;;;;;;11.68;7.32;;;20.70;67.80;;;;;;5032191;28;20439;-66
2022/08/30 05:44:34;;;;;;;12.77;7.82;;;20.80;67.70;;;;;;5032249;28;20018;-69
2022/08/30 05:47:00;;;;;;;15.80;8.27;;;20.90;67.60;;;;;;5032615;28;20029;-66
2022/08/30 05:49:26;;;;;;;11.38;8.27;;;21.00;67.60;;;;;;5032580;28;20045;-67
2022/08/30 05:51:52;;;;;;;11.80;8.05;;;21.00;67.30;;;;;;5032553;28;20036;-67
2022/08/30 05:54:17;;;;;;;10.70;7.15;;;21.10;66.90;;;;;;5032071;28;20360;-67
2022/08/30 05:56:45;;;;;;;10.10;7.18;;;21.10;66.60;;;;;;5032380;28;20061;-67
2022/08/30 05:59:11;;;;;;;17.85;8.63;;;21.20;66.40;;;;;;5014344;28;20505;-67
2022/08/30 06:01:41;;;;;;;13.00;8.07;;;21.20;66.30;;;;;;5031905;28;20026;-68
2022/08/30 06:04:08;;;;;;;11.18;7.80;;;21.30;66.30;;;;;;5050886;28;20041;-67
2022/08/30 06:06:36;;;;;;;9.50;7.93;;;21.30;65.90;;;;;;5046943;28;20477;-67
2022/08/30 06:09:04;;;;;;;13.60;7.45;;;21.40;65.90;;;;;;5032499;28;20411;-67
2022/08/30 06:11:30;;;;;;;9.98;7.95;;;21.40;65.80;;;;;;5032627;28;20091;-67
2022/08/30 06:13:56;;;;;;;13.75;8.07;;;21.40;65.70;;;;;;5036164;28;20057;-68
2022/08/30 06:16:24;;;;;;;13.07;8.18;;;21.50;65.70;;;;;;5035418;28;20037;-68
2022/08/30 06:18:50;;;;;;;10.65;7.25;;;21.50;65.60;;;;;;5035886;28;20033;-68
2022/08/30 06:21:19;;;;;;;14.38;8.32;;;21.60;65.50;;;;;;5048544;28;20108;-67
2022/08/30 06:23:45;;;;;;;13.90;8.23;;;21.60;65.30;;;;;;5048309;28;20033;-68
2022/08/30 06:26:12;;;;;;;13.70;8.25;;;21.60;65.20;;;;;;5035430;28;20483;-68
2022/08/30 06:28:38;;;;;;;10.68;7.75;;;21.70;65.10;;;;;;5034693;28;20029;-67
2022/08/30 06:31:08;;;;;;;13.32;6.68;;;21.70;65.00;;;;;;5035066;28;20030;-68
2022/08/30 06:33:35;;;;;;;11.82;7.28;;;21.80;64.90;;;;;;5035308;28;20398;-68
2022/08/30 06:36:23;;;;;;;9.10;6.80;;;21.90;64.90;;;;;;5035122;28;20025;-68
2022/08/30 06:38:50;;;;;;;19.13;9.13;;;21.90;64.80;;;;;;5017640;28;20108;-68
2022/08/30 06:41:19;;;;;;;15.43;10.57;;;22.00;64.60;;;;;;5035323;28;20040;-67
2022/08/30 06:43:45;;;;;;;17.00;10.13;;;22.10;64.50;;;;;;5035668;28;20029;-68
2022/08/30 06:46:14;;;;;;;19.35;11.25;;;22.10;64.50;;;;;;5035614;28;20032;-68
2022/08/30 06:48:40;;;;;;;18.02;11.23;;;22.20;64.40;;;;;;5035565;28;20029;-67
2022/08/30 06:51:05;;;;;;;17.35;10.18;;;22.20;64.20;;;;;;5046058;28;20112;-67
2022/08/30 06:53:31;;;;;;;14.80;9.93;;;22.30;64.20;;;;;;5055334;28;20028;-68
2022/08/30 06:56:03;;;;;;;14.93;9.60;;;22.40;64.20;;;;;;5055478;28;20025;-68
2022/08/30 06:58:31;;;;;;;11.10;9.20;;;22.50;64.10;;;;;;5055352;28;20033;-69
2022/08/30 07:00:56;;;;;;;23.50;10.30;;;22.50;64.00;;;;;;5055187;28;20078;-67
2022/08/30 07:03:24;;;;;;;19.23;10.18;;;22.60;64.00;;;;;;5055096;28;20021;-68
2022/08/30 07:05:50;;;;;;;14.50;9.70;;;22.70;63.70;;;;;;5055181;28;20025;-68
2022/08/30 07:08:16;;;;;;;12.68;9.45;;;22.70;63.50;;;;;;5055031;28;20489;-68
2022/08/30 07:10:42;;;;;;;17.35;10.23;;;22.80;63.50;;;;;;5055038;28;20021;-68
2022/08/30 07:13:08;;;;;;;18.52;10.68;;;22.80;63.40;;;;;;5055040;28;20032;-68
2022/08/30 07:15:35;;;;;;;17.95;9.88;;;22.90;63.00;;;;;;5054735;28;20397;-67
2022/08/30 07:20:46;;;;;;;14.75;9.88;;;23.10;62.50;;;;;;5046606;28;20152;-67
2022/08/30 07:23:12;;;;;;;17.40;9.80;;;23.20;62.20;;;;;;5034522;28;20045;-68
2022/08/30 07:25:40;;;;;;;16.73;11.07;;;23.20;61.90;;;;;;5034886;28;20033;-68
2022/08/30 07:28:07;;;;;;;13.40;9.88;;;23.30;61.30;;;;;;5034901;28;20045;-68
2022/08/30 07:30:33;;;;;;;15.65;9.23;;;23.40;61.10;;;;;;5034657;28;20057;-68
2022/08/30 07:33:00;;;;;;;15.07;9.85;;;23.40;60.70;;;;;;5034282;28;20029;-68
2022/08/30 07:35:26;;;;;;;16.73;8.43;;;23.50;60.40;;;;;;5034297;28;20022;-68
2022/08/30 07:37:51;;;;;;;10.10;8.27;;;23.60;60.50;;;;;;5034459;28;20024;-69
2022/08/30 07:40:17;;;;;;;14.23;7.50;;;23.60;60.00;;;;;;5034546;28;20033;-68
2022/08/30 07:42:43;;;;;;;8.25;6.47;;;23.70;60.70;;;;;;5034481;28;20018;-67
2022/08/30 07:45:10;;;;;;;10.07;7.40;;;23.70;59.80;;;;;;5034425;28;20014;-68
2022/08/30 07:47:36;;;;;;;10.73;7.07;;;23.80;60.00;;;;;;5034418;28;20463;-68
2022/08/30 07:50:04;;;;;;;11.07;7.32;;;23.80;59.20;;;;;;5035576;28;20075;-67
2022/08/30 07:52:30;;;;;;;11.25;7.40;;;23.90;59.00;;;;;;5054066;28;20021;-68
2022/08/30 07:54:57;;;;;;;15.07;7.35;;;24.00;58.80;;;;;;5054223;28;20466;-68
2022/08/30 07:57:23;;;;;;;11.75;6.43;;;24.00;58.50;;;;;;5054226;28;20090;-68
2022/08/30 07:59:49;;;;;;;10.05;5.55;;;24.10;58.20;;;;;;5053979;28;20045;-68
2022/08/30 08:02:16;;;;;;;8.52;5.40;;;24.10;57.90;;;;;;5054132;28;20532;-69
2022/08/30 08:04:41;;;;;;;7.97;6.03;;;24.20;57.70;;;;;;5054095;28;20029;-68
2022/08/30 08:07:07;;;;;;;8.05;5.72;;;24.20;57.30;;;;;;5054041;28;20426;-68
2022/08/30 08:09:34;;;;;;;12.93;6.13;;;24.30;57.60;;;;;;5054097;28;20582;-68
2022/08/30 08:11:59;;;;;;;11.10;6.68;;;24.40;56.90;;;;;;5053968;28;20036;-69
2022/08/30 08:14:27;;;;;;;11.60;6.25;;;24.40;56.60;;;;;;5053865;28;20390;-68
2022/08/30 08:16:53;;;;;;;15.50;6.85;;;24.50;56.80;;;;;;5053869;28;20028;-68
2022/08/30 08:19:19;;;;;;;9.15;5.80;;;24.50;56.70;;;;;;5053803;28;20048;-68
2022/08/30 08:21:45;;;;;;;9.00;5.88;;;24.60;56.50;;;;;;5019897;28;20146;-68
2022/08/30 08:24:11;;;;;;;8.93;5.97;;;24.60;55.80;;;;;;5032612;28;20049;-68
2022/08/30 08:26:38;;;;;;;9.00;5.85;;;24.70;55.70;;;;;;5033725;28;20097;-67
2022/08/30 08:29:05;;;;;;;10.52;5.78;;;24.70;55.50;;;;;;5033652;28;20446;-68
2022/08/30 08:31:32;;;;;;;10.32;5.70;;;24.80;55.90;;;;;;5033639;28;20022;-69
2022/08/30 08:33:59;;;;;;;9.23;5.38;;;24.80;55.50;;;;;;5033354;28;20451;-68
2022/08/30 08:36:25;;;;;;;10.95;5.00;;;24.90;55.20;;;;;;5015526;28;20446;-68
2022/08/30 08:38:52;;;;;;;11.75;4.90;;;24.90;55.00;;;;;;5033441;28;20321;-68
2022/08/30 08:41:39;;;;;;;8.18;4.80;;;25.00;54.50;;;;;;5015704;28;20025;-68
2022/08/30 08:44:46;;;;;;;9.18;5.53;;;25.00;54.30;;;;;;5033451;28;20025;-68
2022/08/30 08:47:20;;;;;;;6.47;4.30;;;25.10;54.20;;;;;;5015361;28;20025;-68
2022/08/30 08:49:50;;;;;;;8.35;5.28;;;25.20;53.80;;;;;;5032192;28;20422;-68
2022/08/30 08:55:17;;;;;;;8.07;4.30;;;25.20;51.60;;;;;;5033577;28;20080;-68
2022/08/30 08:57:44;;;;;;;7.88;4.15;;;25.30;51.40;;;;;;5033172;28;20033;-68
2022/08/30 09:00:13;;;;;;;11.68;4.60;;;25.30;51.90;;;;;;5033096;28;20084;-68
2022/08/30 09:02:46;;;;;;;11.27;4.68;;;25.40;52.40;;;;;;5033099;28;20501;-67
2022/08/30 09:05:20;;;;;;;7.37;4.80;;;25.50;52.10;;;;;;5033145;28;20029;-67
2022/08/30 09:07:56;;;;;;;14.63;5.20;;;25.60;51.60;;;;;;5033195;28;20022;-69
2022/08/30 09:10:23;;;;;;;9.25;4.68;;;25.70;50.20;;;;;;5033069;28;20033;-68
2022/08/30 09:12:49;;;;;;;8.10;4.25;;;25.70;50.40;;;;;;5033075;28;20033;-67
2022/08/30 09:15:22;;;;;;;9.02;4.68;;;25.80;50.50;;;;;;5031741;28;20036;-68
2022/08/30 09:18:02;;;;;;;6.25;3.85;;;25.80;49.80;;;;;;5032885;28;20025;-68
2022/08/30 09:21:02;;;;;;;9.48;4.22;;;25.90;50.20;;;;;;5037334;28;20029;-68
2022/08/30 09:23:31;;;;;;;5.43;3.53;;;25.90;49.20;;;;;;5052857;28;20467;-69
2022/08/30 09:25:58;;;;;;;10.25;4.28;;;26.00;49.90;;;;;;5052820;28;20028;-68
2022/08/30 09:28:29;;;;;;;6.80;4.00;;;26.00;49.40;;;;;;5052744;28;20096;-68
2022/08/30 09:31:06;;;;;;;7.50;3.88;;;26.10;49.60;;;;;;5034941;28;20112;-68
2022/08/30 09:33:32;;;;;;;9.63;4.35;;;26.20;49.40;;;;;;5011911;28;20022;-68
2022/08/30 09:36:13;;;;;;;7.78;4.35;;;26.20;49.10;;;;;;5013387;28;20498;-69
2022/08/30 09:38:39;;;;;;;11.27;4.47;;;26.30;48.20;;;;;;5013170;28;20052;-68
2022/08/30 09:41:28;;;;;;;8.18;4.28;;;26.30;48.10;;;;;;5012972;28;20026;-69
2022/08/30 09:44:12;;;;;;;6.85;4.13;;;26.30;48.70;;;;;;5012980;28;20471;-68
2022/08/30 09:46:56;;;;;;;10.27;4.45;;;26.40;48.10;;;;;;5013416;28;20026;-68
2022/08/30 09:49:30;;;;;;;;;;;26.40;48.20;;;;;;5017409;28;20022;-69
2022/08/30 09:52:26;;;;;;;8.63;4.28;;;26.50;49.70;;;;;;5048853;28;19951;-68
2022/08/30 09:55:17;;;;;;;9.27;4.25;;;26.60;47.90;;;;;;5056502;28;20365;-68
2022/08/30 09:58:20;;;;;;;9.48;4.35;;;26.60;48.40;;;;;;5056479;28;20021;-68
2022/08/30 10:00:55;;;;;;;5.85;4.05;;;26.60;48.10;;;;;;5032717;28;20094;-68
2022/08/30 10:03:24;;;;;;;8.80;4.45;;;26.70;48.30;;;;;;5038510;28;20029;-67
2022/08/30 10:06:19;;;;;;;11.82;6.00;;;26.80;48.10;;;;;;5055025;28;20028;-67
2022/08/30 10:09:15;;;;;;;8.00;3.90;;;26.80;48.60;;;;;;5037043;28;20083;-68
2022/08/30 10:11:54;;;;;;;9.02;3.75;;;26.90;48.00;;;;;;5034034;28;20466;-68
2022/08/30 10:14:44;;;;;;;6.78;4.68;;;26.90;48.10;;;;;;5056180;28;20032;-68
2022/08/30 10:17:37;;;;;;;9.48;5.40;;;27.00;48.30;;;;;;5056114;28;20482;-67
2022/08/30 10:20:40;;;;;;;12.53;3.73;;;27.00;48.00;;;;;;5055297;28;20032;-68
2022/08/30 10:23:30;;;;;;;8.57;4.43;;;27.10;48.40;;;;;;5035916;28;20053;-68
2022/08/30 10:26:23;;;;;;;9.02;4.78;;;27.20;48.40;;;;;;5035957;28;20044;-68
2022/08/30 10:29:07;;;;;;;8.20;4.43;;;27.20;48.20;;;;;;5034745;28;20022;-68
2022/08/30 10:31:47;;;;;;;6.60;3.60;;;27.30;47.60;;;;;;5035887;28;20017;-68
2022/08/30 10:34:39;;;;;;;6.78;4.75;;;27.30;47.70;;;;;;5035778;28;20033;-66
2022/08/30 10:37:16;;;;;;;8.35;3.95;;;27.40;47.60;;;;;;5035763;28;20049;-67
2022/08/30 10:41:11;;;;;;;6.93;4.30;;;27.40;47.00;;;;;;5035798;28;20383;-67
2022/08/30 10:42:53;;;;;;;8.10;4.35;;;27.40;46.90;;;;;;5033216;28;20037;-67
2022/08/30 10:45:20;;;;;;;10.30;4.22;;;27.50;47.00;;;;;;5035617;28;20214;-67
2022/08/30 10:48:01;;;;;;;7.28;4.28;;;27.50;47.70;;;;;;5035582;28;20025;-67
2022/08/30 10:50:36;;;;;;;9.25;4.32;;;27.50;47.60;;;;;;5038546;28;20021;-67
2022/08/30 10:53:11;;;;;;;9.43;4.78;;;27.50;47.50;;;;;;5055370;28;20032;-67
2022/08/30 10:55:49;;;;;;;10.60;4.90;;;27.60;47.20;;;;;;5055329;28;20029;-67
2022/08/30 10:58:17;;;;;;;8.82;4.13;;;27.60;46.60;;;;;;5054574;28;20025;-68
2022/08/30 11:01:19;;;;;;;9.60;4.95;;;27.60;47.00;;;;;;5054966;28;20425;-67
2022/08/30 11:04:18;;;;;;;7.47;4.32;;;27.70;47.00;;;;;;5055225;28;20025;-67
2022/08/30 11:07:14;;;;;;;10.70;5.13;;;27.70;46.70;;;;;;5055150;28;20383;-67
2022/08/30 11:09:55;;;;;;;8.05;4.35;;;27.80;46.20;;;;;;5055180;28;20105;-67
2022/08/30 11:12:54;;;;;;;8.15;4.70;;;27.80;45.50;;;;;;5055106;28;20017;-67
2022/08/30 11:15:23;;;;;;;7.13;4.63;;;27.80;46.30;;;;;;5055082;28;20025;-67
2022/08/30 11:18:09;;;;;;;14.27;4.90;;;27.90;46.30;;;;;;5055030;28;20359;-67
2022/08/30 11:20:49;;;;;;;7.68;4.55;;;27.90;46.00;;;;;;5051038;28;20060;-67
2022/08/30 11:23:18;;;;;;;6.32;4.40;;;28.00;46.30;;;;;;5034813;28;20046;-67
2022/08/30 11:26:10;;;;;;;10.70;4.65;;;28.00;45.70;;;;;;5034906;28;20047;-67
2022/08/30 11:28:36;;;;;;;10.48;5.18;;;28.00;45.90;;;;;;5034776;28;20075;-68
2022/08/30 11:31:21;;;;;;;7.60;4.70;;;28.10;45.30;;;;;;5034735;28;20029;-67
2022/08/30 11:33:54;;;;;;;7.00;4.70;;;28.10;45.30;;;;;;5034771;28;20025;-67
2022/08/30 11:36:29;;;;;;;10.20;5.18;;;28.10;45.50;;;;;;5033735;28;20029;-68
2022/08/30 11:38:55;;;;;;;6.95;4.50;;;28.20;45.50;;;;;;5034560;28;20510;-66
2022/08/30 11:41:39;;;;;;;6.88;4.20;;;28.20;45.50;;;;;;5033244;28;20029;-67
2022/08/30 11:44:20;;;;;;;7.03;3.95;;;28.30;45.70;;;;;;5034616;28;20044;-67
2022/08/30 11:46:54;;;;;;;7.07;4.28;;;28.30;45.20;;;;;;5034312;28;20072;-67
2022/08/30 11:49:32;;;;;;;6.25;3.88;;;28.40;45.20;;;;;;5034528;28;20032;-68
2022/08/30 11:52:12;;;;;;;8.18;4.13;;;28.40;45.30;;;;;;5014519;28;20030;-67
2022/08/30 11:54:50;;;;;;;7.97;4.40;;;28.50;44.60;;;;;;5014510;28;20068;-67
2022/08/30 11:57:47;;;;;;;9.85;4.75;;;28.60;44.40;;;;;;5014576;28;20072;-67
2022/08/30 12:00:32;;;;;;;6.93;4.00;;;28.60;43.80;;;;;;5014387;28;20037;-67
2022/08/30 12:03:04;;;;;;;11.23;4.93;;;28.60;44.10;;;;;;5014371;28;20021;-67
2022/08/30 12:05:39;;;;;;;8.15;4.47;;;28.60;43.50;;;;;;4996763;28;20029;-68
2022/08/30 12:08:08;;;;;;;8.77;4.38;;;28.60;43.40;;;;;;5014250;28;20029;-67
2022/08/30 12:10:45;;;;;;;6.90;4.13;;;28.70;43.50;;;;;;5013365;28;20033;-67
2022/08/30 12:13:33;;;;;;;7.85;3.70;;;28.70;42.40;;;;;;5012979;28;20033;-67
2022/08/30 12:18:26;;;;;;;10.02;4.18;;;28.70;41.90;;;;;;5014122;28;20026;-67
2022/08/30 12:19:30;;;;;;;5.45;3.60;;;28.70;41.80;;;;;;5002859;28;20066;-67
2022/08/30 12:21:58;;;;;;;6.85;4.15;;;28.80;41.80;;;;;;5033413;28;20061;-67
2022/08/30 12:24:26;;;;;;;8.18;4.07;;;28.90;41.90;;;;;;5016090;28;20021;-68
2022/08/30 12:26:53;;;;;;;6.63;3.53;;;28.90;41.90;;;;;;5033625;28;20017;-67
2022/08/30 12:29:30;;;;;;;6.43;3.78;;;28.90;41.20;;;;;;5033683;28;20056;-67
2022/08/30 12:32:03;;;;;;;6.63;4.20;;;28.90;40.00;;;;;;5033576;28;20035;-68
2022/08/30 12:34:49;;;;;;;9.80;3.97;;;29.00;40.80;;;;;;5033534;28;20026;-67
2022/08/30 12:37:27;;;;;;;12.02;4.32;;;29.00;41.40;;;;;;5032373;28;20083;-67
2022/08/30 12:40:13;;;;;;;6.00;3.90;;;29.00;40.50;;;;;;5033593;28;20109;-68
2022/08/30 12:43:04;;;;;;;7.70;4.32;;;29.10;40.80;;;;;;5033500;28;20112;-68
2022/08/30 12:45:50;;;;;;;8.73;3.90;;;29.10;40.60;;;;;;5033445;28;20017;-68
2022/08/30 12:48:18;;;;;;;6.28;4.18;;;29.10;40.40;;;;;;5015617;28;20574;-68
2022/08/30 12:50:50;;;;;;;13.32;3.83;;;29.20;40.10;;;;;;5044049;28;20033;-68
2022/08/30 12:53:28;;;;;;;8.70;3.80;;;29.20;40.20;;;;;;5053191;28;20028;-68
2022/08/30 12:56:09;;;;;;;7.35;4.00;;;29.20;39.20;;;;;;5053199;28;20544;-68
2022/08/30 12:58:48;;;;;;;9.57;4.35;;;29.20;39.10;;;;;;5053207;28;20025;-68
2022/08/30 13:01:34;;;;;;;6.93;4.90;;;29.30;39.40;;;;;;5053061;28;20021;-68
2022/08/30 13:04:22;;;;;;;6.80;4.07;;;29.30;39.40;;;;;;5034902;28;20139;-67
2022/08/30 13:07:07;;;;;;;5.68;3.72;;;29.30;39.50;;;;;;5035098;28;20021;-67
2022/08/30 13:09:34;;;;;;;6.35;3.60;;;29.40;39.20;;;;;;5053010;28;20074;-67
2022/08/30 13:12:23;;;;;;;5.40;3.45;;;29.40;38.70;;;;;;5052821;28;20382;-67